SAME/MDZ METAR and TAF weather

Enter ICAO airport designator
Station Type Date Time Source
SAME METAR 2021/07/29 19:00 UTC NOAA

SAME 291900Z 02007KT CAVOK 15/M11 Q1021


Station Type Date Time Source
SAME Decoded METAR 2021/07/29 19:00 UTC NOAA

Mendoza Aerodrome, Argentina (SAME) 32-50S 068-47W 704M
Jul 29, 2021 - 03:00 PM EDT / 2021.07.29 1900 UTC
Wind: from the NNE (020 degrees) at 8 MPH (7 KT):0
Visibility: greater than 7 mile(s):0
Temperature: 59 F (15 C)
Dew Point: 12 F (-11 C)
Relative Humidity: 15%
Pressure (altimeter): 30.15 in. Hg (1021 hPa)
ob: SAME 291900Z 02007KT CAVOK 15/M11 Q1021
cycle: 19

Station Type Date Time Source
SAME TAF 2021/07/29 12:06 UTC NOAA

TAF SAME 291100Z 2912/3012 23005KT CAVOK TX15/2920Z TN00/3011Z
BECMG 2914/2915 05010KT

Example: see airport list